Time;durP1;ratioP1;P1;durP2;ratioP2;P2;SDS_P1;SDS_P2;PMS_P1;PMS_P2;Temp;Humidity;BMP_temperature;BMP_pressure;BME280_temperature;BME280_humidity;BME280_pressure;Samples;Min_cycle;Max_cycle;Signal;HPM_P1;HPM_P2
2023/04/04 00:00:07;;;;;;;;;;;2.00;72.30;;;;;;4949958;28;19926;-81
2023/04/04 00:02:32;;;;;;;;;;;1.90;72.30;;;;;;4952326;28;19918;-80
2023/04/04 00:04:58;;;;;;;;;;;1.90;72.40;;;;;;4954301;28;19923;-78
2023/04/04 00:07:23;;;;;;;;;;;1.90;72.40;;;;;;4950320;28;20372;-80
2023/04/04 00:09:49;;;;;;;;;;;1.90;72.40;;;;;;4969751;28;19923;-80
2023/04/04 00:12:15;;;;;;;;;;;1.80;72.40;;;;;;4954818;28;19922;-78
2023/04/04 00:14:40;;;;;;;;;;;1.80;72.40;;;;;;4957127;28;19930;-78
2023/04/04 00:17:06;;;;;;;;;;;1.80;72.50;;;;;;4957109;28;19922;-81
2023/04/04 00:19:31;;;;;;;;;;;1.70;72.40;;;;;;4971329;28;19926;-80
2023/04/04 00:21:57;;;;;;;;;;;1.70;72.50;;;;;;4957850;28;19976;-80
2023/04/04 00:24:22;;;;;;;;;;;1.70;72.60;;;;;;4971903;28;20394;-79
2023/04/04 00:26:47;;;;;;;;;;;1.70;72.60;;;;;;4970447;28;19942;-80
2023/04/04 00:29:13;;;;;;;;;;;1.60;72.60;;;;;;4955767;28;19982;-81
2023/04/04 00:31:38;;;;;;;;;;;1.60;72.60;;;;;;4959601;28;20381;-80
2023/04/04 00:34:04;;;;;;;;;;;1.50;72.50;;;;;;4960741;28;19932;-80
2023/04/04 00:36:30;;;;;;;;;;;1.50;72.60;;;;;;4954211;28;19946;-79
2023/04/04 00:38:55;;;;;;;;;;;1.50;72.60;;;;;;4971247;28;20148;-79
2023/04/04 00:41:21;;;;;;;;;;;1.50;72.70;;;;;;4974949;28;20179;-78
2023/04/04 00:43:47;;;;;;;;;;;1.50;72.70;;;;;;4961799;28;19918;-79
2023/04/04 00:46:14;;;;;;;;;;;1.40;72.70;;;;;;4973599;28;19917;-80
2023/04/04 00:48:40;;;;;;;;;;;1.40;72.70;;;;;;4946557;28;19948;-79
2023/04/04 00:51:05;;;;;;;;;;;1.40;72.80;;;;;;4955753;28;19922;-79
2023/04/04 00:53:31;;;;;;;;;;;1.30;72.70;;;;;;4965152;28;19933;-80
2023/04/04 00:55:56;;;;;;;;;;;1.30;72.80;;;;;;4966596;28;19926;-81
2023/04/04 00:58:22;;;;;;;;;;;1.30;72.80;;;;;;4960812;28;20020;-80
2023/04/04 01:00:48;;;;;;;;;;;1.20;72.80;;;;;;4957634;28;20001;-81
2023/04/04 01:03:13;;;;;;;;;;;1.20;72.80;;;;;;4960146;28;20436;-77
2023/04/04 01:05:39;;;;;;;;;;;1.20;72.80;;;;;;4960676;28;19978;-80
2023/04/04 01:08:05;;;;;;;;;;;1.10;72.80;;;;;;4969919;28;19919;-80
2023/04/04 01:10:31;;;;;;;;;;;1.10;72.80;;;;;;4961222;28;20291;-81
2023/04/04 01:12:57;;;;;;;;;;;1.10;72.80;;;;;;4954759;28;19946;-81
2023/04/04 01:15:22;;;;;;;;;;;1.10;72.90;;;;;;4968081;28;20401;-79
2023/04/04 01:17:48;;;;;;;;;;;1.00;73.30;;;;;;4958970;28;20448;-81
2023/04/04 01:20:14;;;;;;;;;;;1.00;72.90;;;;;;4955635;28;19933;-79
2023/04/04 01:22:40;;;;;;;;;;;1.00;72.90;;;;;;4964921;28;19926;-78
2023/04/04 01:25:06;;;;;;;;;;;0.90;72.90;;;;;;4951351;28;20542;-80
2023/04/04 01:27:31;;;;;;;;;;;0.90;72.90;;;;;;4948676;28;20001;-82
2023/04/04 01:29:56;;;;;;;;;;;0.90;72.90;;;;;;4962570;28;20396;-80
2023/04/04 01:32:41;;;;;;;;;;;0.90;73.00;;;;;;4957568;28;20537;-81
2023/04/04 01:35:20;;;;;;;;;;;0.80;73.00;;;;;;4962245;28;20364;-79
2023/04/04 01:38:04;;;;;;;;;;;0.80;73.00;;;;;;4959291;28;19930;-80
2023/04/04 01:40:38;;;;;;;;;;;0.80;73.00;;;;;;4957085;28;19930;-79
2023/04/04 01:43:04;;;;;;;;;;;0.70;73.10;;;;;;4966269;28;19933;-79
2023/04/04 01:45:29;;;;;;;;;;;0.70;73.10;;;;;;4967584;28;19926;-81
2023/04/04 01:47:58;;;;;;;;;;;0.70;73.10;;;;;;4959010;28;19944;-78
2023/04/04 01:50:23;;;;;;;;;;;0.70;73.10;;;;;;4932023;28;19922;-80
2023/04/04 01:52:49;;;;;;;;;;;0.60;73.20;;;;;;4958621;28;19988;-79
2023/04/04 01:55:14;;;;;;;;;;;0.60;73.20;;;;;;4957844;28;19932;-81
2023/04/04 01:57:40;;;;;;;;;;;0.50;73.10;;;;;;4958332;28;19926;-80
2023/04/04 02:00:06;;;;;;;;;;;0.50;73.20;;;;;;4957537;28;20345;-80
2023/04/04 02:02:31;;;;;;;;;;;0.50;73.30;;;;;;4958138;28;19923;-80
2023/04/04 02:04:57;;;;;;;;;;;0.50;73.30;;;;;;4957172;28;19949;-80
2023/04/04 02:07:23;;;;;;;;;;;0.40;73.20;;;;;;4962107;28;20439;-80
2023/04/04 02:09:48;;;;;;;;;;;0.40;73.30;;;;;;4975050;28;21729;-79
2023/04/04 02:12:14;;;;;;;;;;;0.40;73.30;;;;;;4969039;28;19922;-79
2023/04/04 02:14:39;;;;;;;;;;;0.40;73.30;;;;;;4959289;28;20300;-81
2023/04/04 02:17:05;;;;;;;;;;;0.30;73.30;;;;;;4969349;28;19922;-79
2023/04/04 02:19:31;;;;;;;;;;;0.30;73.30;;;;;;4947963;28;19926;-79
2023/04/04 02:21:56;;;;;;;;;;;0.30;73.30;;;;;;4954229;28;19922;-79
2023/04/04 02:24:21;;;;;;;;;;;0.30;73.40;;;;;;4960432;28;19933;-79
2023/04/04 02:26:47;;;;;;;;;;;0.30;73.40;;;;;;4966653;28;20401;-80
2023/04/04 02:29:12;;;;;;;;;;;0.20;73.40;;;;;;4968882;28;19926;-79
2023/04/04 02:31:38;;;;;;;;;;;0.20;73.40;;;;;;4960234;28;19925;-79
2023/04/04 02:34:03;;;;;;;;;;;0.20;73.40;;;;;;4958889;28;19958;-79
2023/04/04 02:36:29;;;;;;;;;;;0.10;73.40;;;;;;4945641;28;19926;-81
2023/04/04 02:38:54;;;;;;;;;;;0.10;73.40;;;;;;4966246;28;19940;-79
2023/04/04 02:41:20;;;;;;;;;;;0.10;73.50;;;;;;4962666;28;20345;-81
2023/04/04 02:43:45;;;;;;;;;;;0.10;73.50;;;;;;4972665;28;19988;-80
2023/04/04 02:46:11;;;;;;;;;;;0.00;73.50;;;;;;4943239;28;19922;-80
2023/04/04 02:48:36;;;;;;;;;;;0.00;73.50;;;;;;4945483;28;20004;-82
2023/04/04 02:51:02;;;;;;;;;;;0.00;73.50;;;;;;4970428;28;19922;-78
2023/04/04 02:53:27;;;;;;;;;;;0.00;73.60;;;;;;4961253;28;19930;-81
2023/04/04 02:55:53;;;;;;;;;;;0.00;73.60;;;;;;4955779;28;19922;-79
2023/04/04 02:58:18;;;;;;;;;;;0.00;73.60;;;;;;4959903;28;20487;-80
2023/04/04 03:00:46;;;;;;;;;;;-0.10;73.60;;;;;;4955196;28;19973;-79
2023/04/04 03:03:11;;;;;;;;;;;-0.10;73.60;;;;;;4971544;28;19922;-80
2023/04/04 03:05:37;;;;;;;;;;;-0.10;73.60;;;;;;4962937;28;19922;-81
2023/04/04 03:08:03;;;;;;;;;;;-0.10;73.60;;;;;;4958571;28;19998;-81
2023/04/04 03:10:29;;;;;;;;;;;-0.20;73.60;;;;;;4959091;28;19949;-80
2023/04/04 03:12:54;;;;;;;;;;;-0.20;73.70;;;;;;4974096;28;20601;-79
2023/04/04 03:15:20;;;;;;;;;;;-0.20;73.70;;;;;;4970771;28;20762;-80
2023/04/04 03:17:45;;;;;;;;;;;-0.20;73.70;;;;;;4961145;28;20932;-79
2023/04/04 03:20:11;;;;;;;;;;;-0.20;73.70;;;;;;4961568;28;19933;-81
2023/04/04 03:22:37;;;;;;;;;;;-0.30;73.70;;;;;;4951904;28;19918;-79
2023/04/04 03:25:02;;;;;;;;;;;-0.30;73.70;;;;;;4943766;28;19930;-78
2023/04/04 03:27:30;;;;;;;;;;;-0.30;73.80;;;;;;4954688;28;20297;-81
2023/04/04 03:29:55;;;;;;;;;;;-0.30;73.80;;;;;;4971382;28;19929;-79
2023/04/04 03:32:21;;;;;;;;;;;-0.40;73.80;;;;;;4958153;28;19926;-81
2023/04/04 03:34:46;;;;;;;;;;;-0.40;73.80;;;;;;4969360;28;20003;-79
2023/04/04 03:37:12;;;;;;;;;;;-0.40;73.80;;;;;;4958464;28;19925;-81
2023/04/04 03:39:37;;;;;;;;;;;-0.40;73.90;;;;;;4959439;28;20588;-80
2023/04/04 03:42:03;;;;;;;;;;;-0.40;73.80;;;;;;4958799;28;19928;-80
2023/04/04 03:44:28;;;;;;;;;;;-0.50;73.90;;;;;;4958593;28;19927;-81
2023/04/04 03:46:53;;;;;;;;;;;-0.50;73.90;;;;;;4955219;28;19926;-80
2023/04/04 03:49:19;;;;;;;;;;;-0.50;73.90;;;;;;4955473;28;19944;-79
2023/04/04 03:51:44;;;;;;;;;;;-0.50;73.90;;;;;;4963319;28;19926;-80
2023/04/04 03:54:10;;;;;;;;;;;-0.50;73.90;;;;;;4959267;28;19933;-80
2023/04/04 03:56:35;;;;;;;;;;;-0.60;73.90;;;;;;4957855;28;20406;-78
2023/04/04 03:59:01;;;;;;;;;;;-0.60;73.90;;;;;;4958540;28;19922;-80
2023/04/04 04:01:26;;;;;;;;;;;-0.50;74.00;;;;;;4956907;28;19922;-79
2023/04/04 04:03:52;;;;;;;;;;;-0.60;74.00;;;;;;4980780;28;19921;-79
2023/04/04 04:06:17;;;;;;;;;;;-0.60;74.00;;;;;;4967540;28;19922;-81
2023/04/04 04:08:43;;;;;;;;;;;-0.60;74.00;;;;;;4980498;28;19922;-81
2023/04/04 04:11:08;;;;;;;;;;;-0.60;74.10;;;;;;4979227;28;19925;-80
2023/04/04 04:13:36;;;;;;;;;;;-0.60;74.10;;;;;;4979370;28;19949;-81
2023/04/04 04:16:02;;;;;;;;;;;-0.70;74.00;;;;;;4976050;28;19921;-81
2023/04/04 04:18:27;;;;;;;;;;;-0.70;74.00;;;;;;4980215;28;20602;-81
2023/04/04 04:20:57;;;;;;;;;;;-0.70;74.10;;;;;;4979943;28;19926;-79
2023/04/04 04:23:23;;;;;;;;;;;-0.70;74.10;;;;;;4970949;28;19953;-78
2023/04/04 04:25:48;;;;;;;;;;;-0.80;74.10;;;;;;4981163;28;20296;-81
2023/04/04 04:28:14;;;;;;;;;;;-0.80;74.10;;;;;;4980741;28;19921;-80
2023/04/04 04:30:39;;;;;;;;;;;-0.80;74.10;;;;;;4982664;28;19925;-80
2023/04/04 04:33:05;;;;;;;;;;;-0.80;74.10;;;;;;4980038;28;19976;-79
2023/04/04 04:35:30;;;;;;;;;;;-0.80;74.10;;;;;;4975692;28;19922;-79
2023/04/04 04:37:56;;;;;;;;;;;-0.90;74.10;;;;;;4971397;28;20368;-81
2023/04/04 04:40:21;;;;;;;;;;;-0.90;74.10;;;;;;4962050;28;19937;-81
2023/04/04 04:42:46;;;;;;;;;;;-0.90;74.20;;;;;;4957307;28;19922;-82
2023/04/04 04:45:12;;;;;;;;;;;-0.90;74.10;;;;;;4961926;28;19922;-79
2023/04/04 04:47:37;;;;;;;;;;;-0.90;74.20;;;;;;4975323;28;19922;-79
2023/04/04 04:50:03;;;;;;;;;;;-0.90;74.20;;;;;;4970550;28;19922;-81
2023/04/04 04:52:30;;;;;;;;;;;-1.00;74.20;;;;;;4972757;28;20275;-80
2023/04/04 04:54:56;;;;;;;;;;;-1.00;74.20;;;;;;4955508;28;19981;-81
2023/04/04 04:57:21;;;;;;;;;;;-1.00;74.20;;;;;;4972185;28;19926;-82
2023/04/04 04:59:47;;;;;;;;;;;-1.00;74.20;;;;;;4962242;28;19926;-79
2023/04/04 05:02:14;;;;;;;;;;;-1.00;74.30;;;;;;4959939;28;19918;-79
2023/04/04 05:04:40;;;;;;;;;;;-1.00;74.30;;;;;;4957768;28;20009;-80
2023/04/04 05:07:07;;;;;;;;;;;-1.10;74.30;;;;;;4957385;28;19922;-78
2023/04/04 05:09:32;;;;;;;;;;;-1.10;74.30;;;;;;4961945;28;19926;-80
2023/04/04 05:11:58;;;;;;;;;;;-1.10;74.40;;;;;;4960027;28;20282;-80
2023/04/04 05:14:23;;;;;;;;;;;-1.10;74.30;;;;;;4959251;28;19930;-80
2023/04/04 05:16:49;;;;;;;;;;;-1.10;74.40;;;;;;4960830;28;20348;-80
2023/04/04 05:19:15;;;;;;;;;;;-1.10;74.30;;;;;;4958558;28;19926;-81
2023/04/04 05:21:40;;;;;;;;;;;-1.10;74.40;;;;;;4960667;28;19926;-81
2023/04/04 05:24:06;;;;;;;;;;;-1.20;74.30;;;;;;4955292;28;19952;-79
2023/04/04 05:26:31;;;;;;;;;;;-1.20;74.40;;;;;;4945207;28;20492;-81
2023/04/04 05:28:58;;;;;;;;;;;-1.20;74.40;;;;;;4966904;28;19926;-80
2023/04/04 05:31:23;;;;;;;;;;;-1.20;74.40;;;;;;4969026;28;19922;-79
2023/04/04 05:33:49;;;;;;;;;;;-1.20;74.40;;;;;;4966024;28;19985;-79
2023/04/04 05:36:14;;;;;;;;;;;-1.20;74.40;;;;;;4950316;28;20360;-80
2023/04/04 05:38:40;;;;;;;;;;;-1.10;74.50;;;;;;4952160;28;19930;-80
2023/04/04 05:41:05;;;;;;;;;;;-1.10;74.50;;;;;;4950363;28;19937;-81
2023/04/04 05:43:31;;;;;;;;;;;-1.10;74.50;;;;;;4953186;28;19994;-81
2023/04/04 05:45:56;;;;;;;;;;;-1.10;74.50;;;;;;4955042;28;19958;-79
2023/04/04 05:48:22;;;;;;;;;;;-1.10;74.60;;;;;;4964133;28;20033;-79
2023/04/04 05:50:47;;;;;;;;;;;-1.00;74.60;;;;;;4961096;28;20033;-79
2023/04/04 05:53:13;;;;;;;;;;;-1.00;74.60;;;;;;4970687;28;19969;-81
2023/04/04 05:55:38;;;;;;;;;;;-1.00;74.60;;;;;;4978032;28;19930;-81
2023/04/04 05:58:04;;;;;;;;;;;-1.00;74.60;;;;;;4969473;28;19985;-78
2023/04/04 06:00:29;;;;;;;;;;;-0.90;74.70;;;;;;4959331;28;19925;-79
2023/04/04 06:02:56;;;;;;;;;;;-0.90;74.70;;;;;;4959013;28;19922;-79
2023/04/04 06:05:21;;;;;;;;;;;-0.80;74.70;;;;;;4957172;28;20679;-78
2023/04/04 06:07:47;;;;;;;;;;;-0.80;74.70;;;;;;4964194;28;19922;-79
2023/04/04 06:10:12;;;;;;;;;;;-0.70;74.70;;;;;;4972466;28;19922;-80
2023/04/04 06:12:38;;;;;;;;;;;-0.70;75.40;;;;;;4953631;28;19922;-80
2023/04/04 06:15:03;;;;;;;;;;;-0.60;74.70;;;;;;4965728;28;19929;-81
2023/04/04 06:17:29;;;;;;;;;;;-0.50;74.70;;;;;;4965133;28;19948;-81
2023/04/04 06:19:55;;;;;;;;;;;-0.40;74.70;;;;;;4947225;28;19930;-81
2023/04/04 06:22:20;;;;;;;;;;;-0.40;74.60;;;;;;4970012;28;20415;-80
2023/04/04 06:24:46;;;;;;;;;;;-0.30;74.60;;;;;;4963094;28;19926;-78
2023/04/04 06:27:11;;;;;;;;;;;-0.20;74.60;;;;;;4958083;28;19980;-79
2023/04/04 06:29:37;;;;;;;;;;;-0.10;74.60;;;;;;4968797;28;19937;-81
2023/04/04 06:32:04;;;;;;;;;;;-0.10;74.60;;;;;;4960177;28;19922;-81
2023/04/04 06:34:29;;;;;;;;;;;0.00;74.50;;;;;;4958881;28;19922;-79
2023/04/04 06:36:55;;;;;;;;;;;0.10;74.60;;;;;;4964493;28;20413;-80
2023/04/04 06:39:20;;;;;;;;;;;0.20;74.50;;;;;;4954447;28;19969;-80
2023/04/04 06:41:47;;;;;;;;;;;0.30;74.50;;;;;;4954700;28;20290;-81
2023/04/04 06:44:13;;;;;;;;;;;0.40;74.50;;;;;;4971374;28;19922;-80
2023/04/04 06:46:38;;;;;;;;;;;0.50;74.40;;;;;;4967591;28;19919;-79
2023/04/04 06:49:05;;;;;;;;;;;0.60;74.30;;;;;;4952854;28;19927;-79
2023/04/04 06:51:30;;;;;;;;;;;0.80;74.40;;;;;;4956724;28;19921;-80
2023/04/04 06:53:56;;;;;;;;;;;0.90;74.30;;;;;;4972992;28;19918;-81
2023/04/04 06:56:22;;;;;;;;;;;1.00;74.40;;;;;;4944010;28;19977;-82
2023/04/04 06:58:48;;;;;;;;;;;1.20;74.30;;;;;;4956910;28;20562;-81
2023/04/04 07:01:14;;;;;;;;;;;1.30;74.20;;;;;;4957005;28;19969;-82
2023/04/04 07:03:39;;;;;;;;;;;1.40;74.00;;;;;;4960709;28;19940;-79
2023/04/04 07:06:05;;;;;;;;;;;1.50;74.00;;;;;;4973555;28;19922;-79
2023/04/04 07:08:32;;;;;;;;;;;1.70;73.90;;;;;;4968559;28;19922;-81
2023/04/04 07:10:58;;;;;;;;;;;1.90;73.90;;;;;;4970809;28;19965;-79
2023/04/04 07:13:23;;;;;;;;;;;2.00;73.70;;;;;;4956106;28;19929;-79
2023/04/04 07:15:49;;;;;;;;;;;2.10;73.60;;;;;;4971402;28;19922;-78
2023/04/04 07:18:15;;;;;;;;;;;2.30;73.60;;;;;;4969861;28;19922;-81
2023/04/04 07:20:40;;;;;;;;;;;2.40;73.60;;;;;;4962370;28;19930;-83
2023/04/04 07:23:06;;;;;;;;;;;2.50;73.40;;;;;;4961782;28;19923;-79
2023/04/04 07:25:31;;;;;;;;;;;2.70;73.40;;;;;;4961735;28;19922;-81
2023/04/04 07:27:57;;;;;;;;;;;2.80;73.20;;;;;;4964658;28;20377;-82
2023/04/04 07:30:26;;;;;;;;;;;3.00;73.20;;;;;;4979128;28;19964;-83
2023/04/04 07:32:58;;;;;;;;;;;3.10;73.10;;;;;;4959976;28;19993;-81
2023/04/04 07:35:24;;;;;;;;;;;3.30;73.10;;;;;;4958802;28;20044;-81
2023/04/04 07:37:49;;;;;;;;;;;3.40;72.90;;;;;;4974477;28;19965;-79
2023/04/04 07:40:15;;;;;;;;;;;3.60;72.90;;;;;;4959665;28;19926;-80
2023/04/04 07:42:46;;;;;;;;;;;3.70;72.70;;;;;;4957844;28;19922;-79
2023/04/04 07:45:12;;;;;;;;;;;3.90;72.60;;;;;;4964590;28;19979;-81
2023/04/04 07:47:41;;;;;;;;;;;4.10;72.50;;;;;;4961229;28;19926;-79
2023/04/04 07:50:07;;;;;;;;;;;4.30;72.40;;;;;;4974336;28;19930;-81
2023/04/04 07:52:33;;;;;;;;;;;4.40;72.30;;;;;;4972945;28;19926;-81
2023/04/04 07:54:59;;;;;;;;;;;4.60;72.10;;;;;;4970915;28;19930;-81
2023/04/04 07:57:25;;;;;;;;;;;4.70;72.00;;;;;;4949035;28;19926;-79
2023/04/04 07:59:50;;;;;;;;;;;4.80;71.90;;;;;;4951048;28;19925;-79
2023/04/04 08:02:16;;;;;;;;;;;5.00;71.80;;;;;;4954964;28;19926;-79
2023/04/04 08:04:41;;;;;;;;;;;5.10;71.70;;;;;;4960135;28;19922;-81
2023/04/04 08:07:07;;;;;;;;;;;5.30;71.70;;;;;;4953990;28;19923;-79
2023/04/04 08:09:35;;;;;;;;;;;5.50;71.60;;;;;;4953483;28;20033;-79
2023/04/04 08:12:01;;;;;;;;;;;5.60;71.40;;;;;;4958350;28;19922;-78
2023/04/04 08:14:26;;;;;;;;;;;5.70;71.20;;;;;;4972800;28;19922;-79
2023/04/04 08:16:52;;;;;;;;;;;5.90;71.90;;;;;;4974382;28;20573;-79
2023/04/04 08:19:17;;;;;;;;;;;6.00;71.00;;;;;;4961173;28;19923;-80
2023/04/04 08:21:44;;;;;;;;;;;6.20;70.90;;;;;;4957059;28;19977;-81
2023/04/04 08:24:11;;;;;;;;;;;6.30;70.80;;;;;;4964199;28;19986;-81
2023/04/04 08:26:36;;;;;;;;;;;6.50;70.70;;;;;;4971854;28;21856;-80
2023/04/04 08:29:01;;;;;;;;;;;6.70;70.60;;;;;;4969725;28;20031;-80
2023/04/04 08:31:28;;;;;;;;;;;6.80;70.40;;;;;;4961704;28;20448;-81
2023/04/04 08:33:54;;;;;;;;;;;6.80;70.20;;;;;;4971242;28;19922;-81
2023/04/04 08:36:19;;;;;;;;;;;6.90;70.20;;;;;;4960257;28;19926;-82
2023/04/04 08:38:44;;;;;;;;;;;7.10;70.20;;;;;;4958446;28;19989;-80
2023/04/04 08:41:10;;;;;;;;;;;7.20;70.00;;;;;;4976551;28;19957;-80
2023/04/04 08:43:36;;;;;;;;;;;7.30;69.90;;;;;;4967732;28;19923;-79
2023/04/04 08:46:03;;;;;;;;;;;7.40;70.00;;;;;;4958034;28;19970;-78
2023/04/04 08:48:29;;;;;;;;;;;7.70;70.00;;;;;;4961177;28;20808;-82
2023/04/04 08:50:56;;;;;;;;;;;7.90;69.90;;;;;;4971577;28;19947;-79
2023/04/04 08:53:22;;;;;;;;;;;8.10;69.60;;;;;;4973692;28;19922;-80
2023/04/04 08:55:47;;;;;;;;;;;8.30;69.60;;;;;;4960762;28;20408;-79
2023/04/04 08:58:13;;;;;;;;;;;8.50;69.30;;;;;;4956715;28;19930;-80
2023/04/04 09:00:41;;;;;;;;;;;8.70;69.20;;;;;;4961189;28;19929;-80
2023/04/04 09:03:14;;;;;;;;;;;8.90;69.00;;;;;;4960164;28;19950;-81
2023/04/04 09:05:40;;;;;;;;;;;9.10;68.90;;;;;;4963467;28;19933;-79
2023/04/04 09:08:06;;;;;;;;;;;9.30;68.70;;;;;;4944858;28;19923;-81
2023/04/04 09:10:31;;;;;;;;;;;9.40;68.40;;;;;;4950100;28;19930;-80
2023/04/04 09:12:57;;;;;;;;;;;9.60;68.30;;;;;;4963706;28;19929;-80
2023/04/04 09:15:22;;;;;;;;;;;9.70;68.20;;;;;;4972511;28;19927;-81
2023/04/04 09:17:48;;;;;;;;;;;9.80;68.90;;;;;;4948428;28;19926;-81
2023/04/04 09:20:32;;;;;;;;;;;10.00;68.00;;;;;;4957703;28;19978;-80
2023/04/04 09:22:58;;;;;;;;;;;10.20;67.90;;;;;;4968790;28;19921;-82
2023/04/04 09:25:23;;;;;;;;;;;10.40;67.70;;;;;;4947193;28;20401;-80
2023/04/04 09:27:49;;;;;;;;;;;10.60;67.50;;;;;;4964131;28;20075;-76
2023/04/04 09:30:14;;;;;;;;;;;10.70;67.40;;;;;;4969175;28;19922;-77
2023/04/04 09:32:40;;;;;;;;;;;10.90;67.40;;;;;;4969411;28;20564;-78
2023/04/04 09:35:05;;;;;;;;;;;11.10;67.10;;;;;;4957315;28;20032;-78
2023/04/04 09:37:31;;;;;;;;;;;11.20;67.00;;;;;;4965980;28;19930;-77
2023/04/04 09:39:56;;;;;;;;;;;11.40;66.90;;;;;;4958444;28;19925;-77
2023/04/04 09:42:22;;;;;;;;;;;11.60;66.70;;;;;;4954433;28;21487;-80
2023/04/04 09:44:48;;;;;;;;;;;11.80;66.60;;;;;;4957671;28;19922;-79
2023/04/04 09:47:26;;;;;;;;;;;12.00;66.30;;;;;;4952291;28;19934;-79
2023/04/04 09:49:52;;;;;;;;;;;12.10;66.20;;;;;;4963315;28;19965;-79
2023/04/04 09:52:18;;;;;;;;;;;12.30;66.10;;;;;;4957113;28;19950;-80
2023/04/04 09:54:44;;;;;;;;;;;12.40;65.90;;;;;;4974615;28;19977;-81
2023/04/04 09:57:10;;;;;;;;;;;12.50;65.70;;;;;;4956645;28;19973;-78
2023/04/04 09:59:35;;;;;;;;;;;12.50;65.70;;;;;;4955691;28;20333;-81
2023/04/04 10:02:01;;;;;;;;;;;12.50;65.50;;;;;;4965428;28;20457;-81
2023/04/04 10:04:27;;;;;;;;;;;12.60;65.60;;;;;;4959591;28;19965;-80
2023/04/04 10:06:53;;;;;;;;;;;12.70;65.60;;;;;;4940799;28;19965;-79
2023/04/04 10:09:18;;;;;;;;;;;12.70;65.30;;;;;;4958278;28;19979;-79
2023/04/04 10:11:44;;;;;;;;;;;12.70;65.20;;;;;;4964882;28;20467;-79
2023/04/04 10:14:09;;;;;;;;;;;12.80;65.30;;;;;;4952565;28;19922;-80
2023/04/04 10:16:36;;;;;;;;;;;12.80;65.20;;;;;;4953909;28;19922;-79
2023/04/04 10:19:02;;;;;;;;;;;13.00;65.30;;;;;;4954478;28;19929;-81
2023/04/04 10:21:28;;;;;;;;;;;13.20;65.20;;;;;;4977427;28;20216;-80
2023/04/04 10:23:53;;;;;;;;;;;13.30;65.00;;;;;;4949091;28;19953;-78
2023/04/04 10:26:19;;;;;;;;;;;13.40;65.10;;;;;;4973284;28;19965;-80
2023/04/04 10:28:45;;;;;;;;;;;13.50;64.80;;;;;;4977409;28;19996;-82
2023/04/04 10:31:23;;;;;;;;;;;13.50;64.60;;;;;;4970880;28;20541;-81
2023/04/04 10:33:49;;;;;;;;;;;13.60;65.50;;;;;;4960639;28;20278;-79
2023/04/04 10:36:15;;;;;;;;;;;13.70;64.60;;;;;;4967639;28;20417;-79
2023/04/04 10:38:43;;;;;;;;;;;13.90;64.60;;;;;;4971953;28;20397;-81
2023/04/04 10:41:09;;;;;;;;;;;14.00;64.40;;;;;;4952528;28;20639;-82
2023/04/04 10:43:35;;;;;;;;;;;14.10;64.40;;;;;;4967750;28;19922;-78
2023/04/04 10:46:04;;;;;;;;;;;14.30;64.20;;;;;;4953438;28;19922;-78
2023/04/04 10:48:29;;;;;;;;;;;14.60;64.20;;;;;;4966790;28;19922;-81
2023/04/04 10:50:54;;;;;;;;;;;14.80;63.90;;;;;;4955069;28;19976;-77
2023/04/04 10:53:21;;;;;;;;;;;15.00;63.80;;;;;;4970937;28;20642;-81
2023/04/04 10:55:46;;;;;;;;;;;15.30;63.50;;;;;;4954376;28;19996;-79
2023/04/04 10:58:12;;;;;;;;;;;15.50;63.40;;;;;;4966047;28;19922;-76
2023/04/04 11:00:47;;;;;;;;;;;15.70;63.10;;;;;;4950322;28;19988;-75
2023/04/04 11:03:13;;;;;;;;;;;15.90;62.90;;;;;;4966774;28;19974;-75
2023/04/04 11:05:39;;;;;;;;;;;16.00;62.80;;;;;;4956272;28;19965;-79
2023/04/04 11:08:05;;;;;;;;;;;16.10;62.50;;;;;;4969559;28;19922;-80
2023/04/04 11:10:34;;;;;;;;;;;16.00;62.40;;;;;;4947097;28;19922;-79
2023/04/04 11:13:08;;;;;;;;;;;15.90;62.50;;;;;;4952799;28;20009;-79
2023/04/04 11:15:44;;;;;;;;;;;15.90;62.60;;;;;;4972812;28;19922;-79
2023/04/04 11:18:11;;;;;;;;;;;15.90;62.70;;;;;;4946398;28;19968;-79
2023/04/04 11:20:38;;;;;;;;;;;15.90;62.70;;;;;;4962486;28;20419;-80
2023/04/04 11:23:04;;;;;;;;;;;16.00;62.60;;;;;;4975223;28;19918;-79
2023/04/04 11:25:30;;;;;;;;;;;16.00;62.70;;;;;;4980917;28;19946;-78
2023/04/04 11:27:56;;;;;;;;;;;16.10;62.60;;;;;;4960883;28;19968;-80
2023/04/04 11:30:21;;;;;;;;;;;16.30;62.60;;;;;;4956399;28;19933;-80
2023/04/04 11:32:47;;;;;;;;;;;16.50;62.50;;;;;;4954545;28;19926;-81
2023/04/04 11:35:13;;;;;;;;;;;16.60;62.20;;;;;;4965183;28;19926;-77
2023/04/04 11:37:51;;;;;;;;;;;16.70;62.00;;;;;;4967452;28;19934;-79
2023/04/04 11:40:17;;;;;;;;;;;16.70;61.70;;;;;;4969551;28;19929;-79
2023/04/04 11:42:42;;;;;;;;;;;16.70;61.90;;;;;;4968128;28;19923;-79
2023/04/04 11:45:11;;;;;;;;;;;16.70;61.90;;;;;;4967412;28;19941;-80
2023/04/04 11:47:36;;;;;;;;;;;16.80;61.80;;;;;;4960829;28;20048;-78
2023/04/04 11:50:06;;;;;;;;;;;16.90;61.90;;;;;;4984927;28;20476;-79
2023/04/04 11:52:32;;;;;;;;;;;17.10;61.80;;;;;;4970969;28;19926;-79
2023/04/04 11:54:58;;;;;;;;;;;17.20;61.60;;;;;;4970775;28;19922;-81
2023/04/04 11:57:23;;;;;;;;;;;17.50;61.50;;;;;;4975528;28;19932;-79
2023/04/04 11:59:49;;;;;;;;;;;17.60;61.40;;;;;;4963691;28;19932;-78
2023/04/04 12:02:15;;;;;;;;;;;17.80;61.10;;;;;;4976084;28;19922;-79
2023/04/04 12:04:44;;;;;;;;;;;17.90;60.80;;;;;;4987978;28;19922;-80
2023/04/04 12:07:09;;;;;;;;;;;17.90;60.80;;;;;;4971493;28;20028;-80
2023/04/04 12:09:35;;;;;;;;;;;18.00;60.80;;;;;;4970371;28;20033;-80
2023/04/04 12:12:02;;;;;;;;;;;18.00;60.80;;;;;;4982742;28;19973;-80
2023/04/04 12:14:27;;;;;;;;;;;18.10;60.50;;;;;;4979525;28;19921;-80
2023/04/04 12:16:53;;;;;;;;;;;18.10;60.40;;;;;;4981558;28;19932;-80
2023/04/04 12:19:19;;;;;;;;;;;18.10;60.70;;;;;;4987834;28;20624;-78
2023/04/04 12:21:45;;;;;;;;;;;18.20;60.60;;;;;;4986139;28;19945;-79
2023/04/04 12:24:11;;;;;;;;;;;18.30;60.60;;;;;;4988685;28;19922;-79
2023/04/04 12:26:36;;;;;;;;;;;18.40;60.50;;;;;;4959395;28;19929;-79
2023/04/04 12:29:02;;;;;;;;;;;18.50;60.40;;;;;;4962360;28;19922;-80
2023/04/04 12:31:27;;;;;;;;;;;18.60;60.40;;;;;;4941132;28;19931;-81
2023/04/04 12:33:53;;;;;;;;;;;18.70;60.10;;;;;;4968473;28;19978;-79
2023/04/04 12:36:19;;;;;;;;;;;18.70;60.00;;;;;;4962305;28;19922;-79
2023/04/04 12:38:57;;;;;;;;;;;18.60;60.10;;;;;;4961430;28;19922;-80
2023/04/04 12:41:23;;;;;;;;;;;18.60;60.20;;;;;;4943249;28;19965;-80
2023/04/04 12:43:48;;;;;;;;;;;18.50;60.10;;;;;;4970194;28;19953;-81
2023/04/04 12:46:14;;;;;;;;;;;18.60;60.20;;;;;;4956709;28;19929;-78
2023/04/04 12:48:39;;;;;;;;;;;18.60;60.30;;;;;;4951989;28;19949;-79
2023/04/04 12:51:07;;;;;;;;;;;18.70;60.30;;;;;;4926234;28;19957;-78
2023/04/04 12:53:32;;;;;;;;;;;18.80;60.30;;;;;;4950757;28;20042;-76
2023/04/04 12:56:01;;;;;;;;;;;18.90;60.10;;;;;;4958128;28;20025;-79
2023/04/04 12:58:27;;;;;;;;;;;18.90;59.90;;;;;;4972086;28;19922;-78
2023/04/04 13:00:53;;;;;;;;;;;19.00;60.00;;;;;;4958127;28;20471;-79
2023/04/04 13:03:19;;;;;;;;;;;19.10;59.90;;;;;;4970623;28;19929;-77
2023/04/04 13:05:46;;;;;;;;;;;19.00;59.70;;;;;;4954396;28;19922;-79
2023/04/04 13:08:11;;;;;;;;;;;19.00;59.70;;;;;;4957877;28;20032;-78
2023/04/04 13:10:55;;;;;;;;;;;19.00;59.80;;;;;;4957168;28;20484;-78
2023/04/04 13:13:34;;;;;;;;;;;19.00;59.80;;;;;;4970908;28;19922;-77
2023/04/04 13:16:00;;;;;;;;;;;19.00;59.80;;;;;;4967038;28;19922;-78
2023/04/04 13:18:31;;;;;;;;;;;18.90;59.70;;;;;;4963332;28;19926;-78
2023/04/04 13:20:56;;;;;;;;;;;18.90;59.70;;;;;;4960755;28;20637;-79
2023/04/04 13:23:22;;;;;;;;;;;19.00;59.90;;;;;;4954303;28;19929;-76
2023/04/04 13:25:47;;;;;;;;;;;18.90;59.70;;;;;;4963400;28;20065;-75
2023/04/04 13:28:13;;;;;;;;;;;18.90;59.80;;;;;;4958581;28;19922;-77
2023/04/04 13:30:42;;;;;;;;;;;18.80;60.20;;;;;;4956483;28;19922;-78
2023/04/04 13:33:08;;;;;;;;;;;18.70;59.60;;;;;;4966252;28;20064;-80
2023/04/04 13:35:34;;;;;;;;;;;18.50;59.50;;;;;;4950323;28;19929;-79
2023/04/04 13:37:59;;;;;;;;;;;18.30;59.60;;;;;;4965313;28;19931;-73
2023/04/04 13:40:25;;;;;;;;;;;18.20;59.70;;;;;;4960103;28;20511;-75
2023/04/04 13:42:50;;;;;;;;;;;18.00;59.80;;;;;;4947698;28;19945;-75
2023/04/04 13:45:16;;;;;;;;;;;17.90;59.90;;;;;;4942012;28;19973;-78
2023/04/04 13:47:41;;;;;;;;;;;17.90;60.20;;;;;;4946461;28;20069;-76
2023/04/04 13:50:07;;;;;;;;;;;18.00;60.50;;;;;;4943562;28;19922;-79
2023/04/04 13:52:32;;;;;;;;;;;18.10;60.50;;;;;;4963417;28;19930;-80
2023/04/04 13:54:58;;;;;;;;;;;18.20;60.40;;;;;;4953685;28;19958;-79
2023/04/04 13:57:23;;;;;;;;;;;18.30;60.10;;;;;;4952094;28;19930;-80
2023/04/04 13:59:48;;;;;;;;;;;18.40;60.00;;;;;;4964313;28;19981;-79
2023/04/04 14:02:15;;;;;;;;;;;18.40;59.90;;;;;;4954950;28;19922;-81
2023/04/04 14:04:40;;;;;;;;;;;18.40;60.00;;;;;;4955938;28;19928;-81
2023/04/04 14:07:06;;;;;;;;;;;18.50;60.00;;;;;;4953075;28;19922;-80
2023/04/04 14:09:31;;;;;;;;;;;18.70;59.90;;;;;;4954852;28;19954;-80
2023/04/04 14:11:57;;;;;;;;;;;18.80;59.80;;;;;;4959991;28;19921;-81
2023/04/04 14:14:22;;;;;;;;;;;18.90;59.70;;;;;;4936226;28;20317;-80